TimeMDT,TemperatureF,Dew PointF,Humidity,Sea Level PressureIn,VisibilityMPH,Wind Direction,Wind SpeedMPH,Gust SpeedMPH,PrecipitationIn,Events,Conditions,WindDirDegrees,DateUTC
12:05 AM,26.6,21.2,80,30.02,10.0,West,11.5,-,0.00,,Overcast,270,2013-03-23 06:05:00
12:53 AM,26.6,21.2,80,30.02,10.0,WSW,5.8,-,N/A,,Overcast,240,2013-03-23 06:53:00
1:50 AM,26.6,21.2,80,30.03,6.0,SE,4.6,-,0.00,Snow,Light Snow,140,2013-03-23 07:50:00
1:53 AM,27.0,23.0,85,30.06,6.0,SSE,4.6,-,0.00,Snow,Light Snow,160,2013-03-23 07:53:00
2:33 AM,26.6,23.0,86,30.04,2.5,Calm,Calm,-,0.01,Snow,Light Snow,0,2013-03-23 08:33:00
2:53 AM,26.1,23.0,88,30.08,3.0,SW,6.9,-,0.02,Snow,Light Snow,220,2013-03-23 08:53:00
3:26 AM,24.8,21.2,86,30.04,10.0,SSW,3.5,-,0.00,,Mostly Cloudy,210,2013-03-23 09:26:00
3:53 AM,25.0,21.9,88,30.08,10.0,SSE,4.6,-,0.00,,Mostly Cloudy,160,2013-03-23 09:53:00
4:53 AM,25.0,21.9,88,30.08,10.0,South,4.6,-,N/A,,Mostly Cloudy,170,2013-03-23 10:53:00
5:51 AM,26.6,24.8,93,30.05,3.0,WNW,12.7,-,0.00,Snow,Light Snow,290,2013-03-23 11:51:00
5:53 AM,26.1,24.1,92,30.10,3.0,WNW,12.7,-,0.00,Snow,Light Snow,290,2013-03-23 11:53:00
6:20 AM,26.6,24.8,93,30.07,2.0,West,8.1,-,0.00,Snow,Light Snow,280,2013-03-23 12:20:00
6:38 AM,26.6,24.8,93,30.07,6.0,West,6.9,-,0.01,Snow,Light Snow,270,2013-03-23 12:38:00
6:53 AM,26.1,23.0,88,30.13,10.0,West,6.9,-,0.01,,Mostly Cloudy,260,2013-03-23 12:53:00
7:53 AM,26.1,21.0,81,30.16,10.0,NNW,6.9,-,N/A,,Scattered Clouds,330,2013-03-23 13:53:00
8:53 AM,26.1,21.0,81,30.19,10.0,Calm,Calm,-,N/A,,Scattered Clouds,0,2013-03-23 14:53:00
9:53 AM,28.9,19.9,69,30.20,10.0,North,5.8,-,N/A,,Mostly Cloudy,360,2013-03-23 15:53:00
10:53 AM,32.0,19.9,61,30.22,10.0,North,8.1,-,N/A,,Scattered Clouds,350,2013-03-23 16:53:00
11:53 AM,32.0,19.0,59,30.24,10.0,West,8.1,-,N/A,,Mostly Cloudy,270,2013-03-23 17:53:00
12:53 PM,34.0,23.0,64,30.23,10.0,West,6.9,-,N/A,,Mostly Cloudy,280,2013-03-23 18:53:00
1:53 PM,36.0,23.0,59,30.21,10.0,WNW,12.7,-,N/A,,Mostly Cloudy,290,2013-03-23 19:53:00
2:53 PM,37.0,23.0,57,30.19,10.0,WNW,13.8,18.4,N/A,,Scattered Clouds,300,2013-03-23 20:53:00
3:53 PM,37.9,17.1,43,30.18,10.0,West,13.8,-,N/A,,Scattered Clouds,280,2013-03-23 21:53:00
4:53 PM,37.9,14.0,38,30.18,10.0,WNW,12.7,-,N/A,,Mostly Cloudy,290,2013-03-23 22:53:00
5:53 PM,36.0,14.0,41,30.18,10.0,WNW,10.4,-,N/A,,Mostly Cloudy,290,2013-03-23 23:53:00
6:53 PM,35.1,14.0,42,30.19,10.0,WNW,11.5,-,N/A,,Mostly Cloudy,290,2013-03-24 00:53:00
7:53 PM,33.1,16.0,50,30.21,10.0,NNW,5.8,-,N/A,,Scattered Clouds,340,2013-03-24 01:53:00
8:53 PM,30.0,21.9,72,30.24,10.0,North,5.8,-,N/A,,Scattered Clouds,10,2013-03-24 02:53:00
9:53 PM,32.0,19.0,59,30.22,10.0,ENE,3.5,-,N/A,,Scattered Clouds,60,2013-03-24 03:53:00
10:53 PM,28.9,16.0,58,30.24,10.0,South,5.8,-,N/A,,Partly Cloudy,170,2013-03-24 04:53:00
11:53 PM,28.0,14.0,56,30.24,10.0,South,4.6,-,N/A,,Partly Cloudy,180,2013-03-24 05:53:00